createdAt,value
2022-10-01T05:25:13.941Z,100105.59
2022-10-01T05:28:22.105Z,100127.41
2022-10-01T05:31:25.515Z,100123.25
2022-10-01T05:34:28.717Z,100107.81
2022-10-01T05:37:31.527Z,100096.56
2022-10-01T05:40:34.701Z,100091.75
2022-10-01T05:43:37.333Z,100085.28
2022-10-01T05:46:40.588Z,100074.69
2022-10-01T05:49:44.585Z,100065.50
2022-10-01T05:52:53.006Z,100058.72
2022-10-01T05:55:56.032Z,100062.91
2022-10-01T05:58:59.593Z,100072.25
2022-10-01T06:02:04.314Z,100065.19
2022-10-01T06:05:07.627Z,100058.88
2022-10-01T06:08:10.652Z,100071.84
2022-10-01T06:11:13.732Z,100078.25
2022-10-01T06:14:40.249Z,100095.53
2022-10-01T06:17:47.013Z,100104.38
2022-10-01T06:20:49.839Z,100105.16
2022-10-01T06:23:53.556Z,100109.03
2022-10-01T06:26:56.517Z,100106.19
2022-10-01T06:29:59.618Z,100098.75
2022-10-01T06:33:08.430Z,100093.59
2022-10-01T06:36:11.449Z,100095.03
2022-10-01T06:39:14.687Z,100083.81
2022-10-01T06:42:17.711Z,100085.09
2022-10-01T06:45:20.611Z,100087.72
2022-10-01T06:48:23.826Z,100077.25
2022-10-01T06:51:45.496Z,100085.94
2022-10-01T06:54:48.677Z,100083.22
2022-10-01T06:57:56.032Z,100091.56
2022-10-01T07:01:01.567Z,100087.28
2022-10-01T07:04:04.360Z,100072.22
2022-10-01T07:07:17.495Z,100082.47
2022-10-01T07:10:21.659Z,100075.94
2022-10-01T07:13:24.691Z,100067.22
2022-10-01T07:16:27.476Z,100065.06
2022-10-01T07:19:31.853Z,100055.31
2022-10-01T07:22:37.214Z,100055.81
2022-10-01T07:47:58.676Z,100070.87
2022-10-01T07:51:01.760Z,100077.78
2022-10-01T07:54:05.259Z,100066.53
2022-10-01T07:57:08.261Z,100063.34
2022-10-01T08:00:11.561Z,100063.31
2022-10-01T08:03:14.622Z,100059.75
2022-10-01T08:06:25.446Z,100056.78
2022-10-01T08:09:28.502Z,100047.09
2022-10-01T08:12:31.604Z,100040.44
2022-10-01T08:15:40.056Z,100047.81
2022-10-01T08:18:44.876Z,100043.91
2022-10-01T08:21:47.622Z,100040.97
2022-10-01T08:24:50.888Z,100051.38
2022-10-01T08:27:54.049Z,100025.97
2022-10-01T08:31:09.110Z,100028.50
2022-10-01T08:34:11.846Z,100015.88
2022-10-01T08:37:24.904Z,100026.69
2022-10-01T08:40:27.967Z,100020.78
2022-10-01T08:43:32.456Z,100015.75
2022-10-01T08:46:37.548Z,100009.84
2022-10-01T08:49:47.323Z,100038.81
2022-10-01T08:52:56.562Z,100027.56
2022-10-01T08:56:02.198Z,100022.28
2022-10-01T08:59:30.938Z,100032.72
2022-10-01T09:02:38.235Z,100030.31
2022-10-01T09:06:07.190Z,100038.69
2022-10-01T09:09:41.424Z,100028.56
2022-10-01T09:13:04.522Z,100027.56
2022-10-01T09:16:26.955Z,100040.78
2022-10-01T09:19:40.724Z,100035.44
2022-10-01T09:23:12.369Z,100025.69
2022-10-01T09:26:38.396Z,100029.19
2022-10-01T09:29:51.701Z,100014.47
2022-10-01T09:33:16.414Z,100011.00
2022-10-01T09:36:40.330Z,99985.25
2022-10-01T09:39:55.432Z,99983.81
2022-10-01T09:42:58.537Z,99991.44
2022-10-01T09:46:04.702Z,99980.78
2022-10-01T09:49:20.186Z,99983.97
2022-10-01T09:52:28.358Z,99984.78
2022-10-01T09:55:56.215Z,99987.44
2022-10-01T09:59:05.363Z,99987.22
2022-10-01T10:02:36.926Z,99991.19
2022-10-01T10:05:46.639Z,99981.84
2022-10-01T10:08:49.431Z,99991.47
2022-10-01T10:11:53.119Z,99991.72
2022-10-01T10:14:59.024Z,99984.16
2022-10-01T10:18:09.117Z,99983.19
2022-10-01T10:21:19.571Z,99980.88
2022-10-01T10:24:42.964Z,99987.78
2022-10-01T10:28:05.192Z,99972.97
2022-10-01T10:31:24.444Z,99974.84
2022-10-01T10:34:33.848Z,99979.38
2022-10-01T10:37:57.313Z,99976.16
2022-10-01T10:41:01.068Z,99969.44
2022-10-01T10:44:07.252Z,99960.12
2022-10-01T10:47:14.556Z,99958.25
2022-10-01T10:50:27.206Z,99950.09
2022-10-01T10:53:46.489Z,99947.09
2022-10-01T10:56:55.707Z,99936.47
2022-10-01T11:00:26.195Z,99923.84
2022-10-01T11:03:32.180Z,99923.69
2022-10-01T11:06:35.332Z,99923.47
2022-10-01T11:10:19.495Z,99911.88
2022-10-01T11:14:05.114Z,99898.81
2022-10-01T11:17:40.787Z,99894.00
2022-10-01T11:20:56.128Z,99892.94
2022-10-01T11:24:33.178Z,99891.47
2022-10-01T11:27:48.410Z,99890.38
2022-10-01T11:31:07.028Z,99883.72
2022-10-01T11:34:12.809Z,99875.59
2022-10-01T11:37:25.121Z,99866.81
2022-10-01T11:40:33.963Z,99860.25
2022-10-01T11:43:44.365Z,99859.56
2022-10-01T11:47:09.504Z,99856.56
2022-10-01T11:50:19.722Z,99851.94
2022-10-01T11:53:32.331Z,99844.09
2022-10-01T11:57:00.870Z,99835.47
2022-10-01T12:00:10.907Z,99835.31
2022-10-01T12:03:21.738Z,99828.25
2022-10-01T12:06:43.492Z,99825.22
2022-10-01T12:09:57.373Z,99829.75
2022-10-01T12:13:22.528Z,99822.16
2022-10-01T12:16:43.135Z,99827.22
2022-10-01T12:19:51.443Z,99815.72
2022-10-01T12:23:07.441Z,99826.00
2022-10-01T12:26:16.646Z,99813.66
2022-10-01T12:29:41.031Z,99809.69
2022-10-01T12:32:48.556Z,99810.22
2022-10-01T12:39:43.840Z,99803.78
2022-10-01T12:43:53.735Z,99797.91
2022-10-01T12:47:06.000Z,99796.69
2022-10-01T12:50:24.805Z,99797.50
2022-10-01T12:54:00.748Z,99805.59
2022-10-01T12:57:11.254Z,99782.50
2022-10-01T13:00:25.072Z,99777.00
2022-10-01T13:03:42.629Z,99783.78
2022-10-01T13:07:12.978Z,99765.13
2022-10-01T13:10:25.804Z,99759.50
2022-10-01T13:55:43.502Z,99697.13
2022-10-01T13:58:51.314Z,99704.00
2022-10-01T14:01:56.835Z,99699.72
2022-10-01T14:05:28.879Z,99710.06
2022-10-01T14:08:40.704Z,99717.28
2022-10-01T14:12:06.946Z,99726.00
2022-10-01T14:15:37.476Z,99725.28
2022-10-01T14:18:44.304Z,99727.66
2022-10-01T14:22:06.083Z,99725.63
2022-10-01T14:25:37.005Z,99717.44
